createdAt,value
2019-03-17T00:00:12.858Z,97.04
2019-03-17T00:02:41.504Z,95.68
2019-03-17T00:05:10.180Z,93.96
2019-03-17T00:07:38.695Z,93.56
2019-03-17T00:10:07.432Z,93.77
2019-03-17T00:12:35.895Z,95.22
2019-03-17T00:15:06.412Z,95.05
2019-03-17T00:17:35.073Z,95.20
2019-03-17T00:20:03.733Z,95.78
2019-03-17T00:22:32.211Z,96.79
2019-03-17T00:25:09.005Z,97.57
2019-03-17T00:27:30.895Z,98.55
2019-03-17T00:29:59.395Z,99.04
2019-03-17T00:32:28.009Z,99.67
2019-03-17T00:34:56.697Z,100.00
2019-03-17T00:37:25.191Z,100.00
2019-03-17T00:39:53.708Z,100.00
2019-03-17T00:42:22.183Z,100.00
2019-03-17T00:44:50.687Z,99.92
2019-03-17T00:47:19.164Z,98.50
2019-03-17T00:49:47.668Z,98.63
2019-03-17T00:52:16.146Z,98.34
2019-03-17T00:54:44.643Z,97.37
2019-03-17T00:57:13.120Z,97.01
2019-03-17T00:59:41.620Z,96.39
2019-03-17T01:02:10.098Z,96.17
2019-03-17T01:04:38.598Z,96.32
2019-03-17T01:07:07.069Z,96.56
2019-03-17T01:09:35.568Z,97.56
2019-03-17T01:12:04.775Z,98.00
2019-03-17T01:14:33.274Z,97.26
2019-03-17T01:17:01.819Z,97.24
2019-03-17T01:19:30.321Z,96.31
2019-03-17T01:21:58.786Z,95.67
2019-03-17T01:24:27.276Z,95.19
2019-03-17T01:26:55.754Z,96.06
2019-03-17T01:29:24.242Z,95.23
2019-03-17T01:31:52.708Z,94.19
2019-03-17T01:34:21.201Z,93.69
2019-03-17T01:36:49.662Z,92.24
2019-03-17T01:39:18.230Z,91.87
2019-03-17T01:41:46.699Z,93.95
2019-03-17T01:44:15.200Z,93.46
2019-03-17T01:46:43.665Z,92.70
2019-03-17T01:49:12.239Z,93.78
2019-03-17T01:51:40.705Z,93.92
2019-03-17T01:54:09.205Z,94.42
2019-03-17T01:56:37.673Z,93.94
2019-03-17T01:59:06.168Z,94.79
2019-03-17T02:01:34.636Z,94.53
2019-03-17T02:04:03.196Z,94.24
2019-03-17T02:06:31.733Z,94.65
2019-03-17T02:09:00.232Z,93.97
2019-03-17T02:11:28.698Z,95.19
2019-03-17T02:13:57.189Z,95.81
2019-03-17T02:16:25.654Z,95.87
2019-03-17T02:18:54.117Z,95.83
2019-03-17T02:21:22.605Z,96.44
2019-03-17T02:23:51.070Z,96.61
2019-03-17T02:26:19.554Z,96.74
2019-03-17T02:28:48.015Z,97.04
2019-03-17T02:31:16.505Z,97.61
2019-03-17T02:33:44.966Z,98.28
2019-03-17T02:36:13.443Z,98.00
2019-03-17T02:38:41.910Z,97.59
2019-03-17T02:41:10.401Z,98.32
2019-03-17T02:43:38.862Z,98.52
2019-03-17T02:46:07.351Z,98.33
2019-03-17T02:48:35.816Z,98.60
2019-03-17T02:51:04.383Z,98.97
2019-03-17T02:53:32.843Z,99.64
2019-03-17T02:56:01.327Z,100.00
2019-03-17T02:58:29.811Z,100.00
2019-03-17T03:00:58.288Z,100.00
2019-03-17T03:03:26.758Z,100.00
2019-03-17T03:05:55.754Z,100.00
2019-03-17T03:08:24.457Z,100.00
2019-03-17T03:10:52.901Z,100.00
2019-03-17T03:13:21.370Z,100.00
2019-03-17T03:15:49.878Z,100.00
2019-03-17T03:18:18.353Z,100.00
2019-03-17T03:20:46.850Z,100.00
2019-03-17T03:23:15.324Z,100.00
2019-03-17T03:25:43.824Z,100.00
2019-03-17T03:28:12.288Z,100.00
2019-03-17T03:30:40.792Z,100.00
2019-03-17T03:33:09.261Z,100.00
2019-03-17T03:35:37.768Z,100.00
2019-03-17T03:38:06.255Z,100.00
2019-03-17T03:40:34.803Z,100.00
2019-03-17T03:43:03.445Z,100.00
2019-03-17T03:45:31.983Z,100.00
2019-03-17T03:48:00.429Z,100.00
2019-03-17T03:50:28.922Z,100.00
2019-03-17T03:52:57.414Z,100.00
2019-03-17T03:55:25.918Z,100.00
2019-03-17T03:57:54.574Z,100.00
2019-03-17T04:00:23.073Z,100.00
2019-03-17T04:02:51.536Z,100.00
2019-03-17T04:05:20.117Z,100.00
2019-03-17T04:07:48.582Z,100.00
2019-03-17T04:10:17.091Z,100.00
2019-03-17T04:12:45.564Z,100.00
2019-03-17T04:15:14.307Z,100.00
2019-03-17T04:17:42.779Z,100.00
2019-03-17T04:20:12.858Z,100.00
2019-03-17T04:22:41.324Z,100.00
2019-03-17T04:25:12.212Z,100.00
2019-03-17T04:27:40.677Z,100.00
2019-03-17T04:30:10.824Z,100.00
2019-03-17T04:32:39.300Z,100.00
2019-03-17T04:35:07.979Z,100.00
2019-03-17T04:37:36.436Z,100.00
2019-03-17T04:40:07.275Z,100.00
2019-03-17T04:42:35.744Z,100.00
2019-03-17T04:45:05.051Z,100.00
2019-03-17T04:47:33.543Z,100.00
2019-03-17T04:50:02.024Z,100.00
2019-03-17T04:52:30.518Z,100.00
2019-03-17T04:54:58.995Z,100.00
2019-03-17T04:57:27.494Z,100.00
2019-03-17T04:59:55.961Z,100.00
2019-03-17T05:02:24.456Z,100.00
2019-03-17T05:04:52.923Z,100.00
2019-03-17T05:07:21.414Z,100.00
2019-03-17T05:09:49.883Z,100.00
2019-03-17T05:12:18.367Z,100.00
2019-03-17T05:14:46.839Z,100.00
2019-03-17T05:17:15.327Z,100.00
2019-03-17T05:19:43.795Z,100.00
2019-03-17T05:22:12.291Z,100.00
2019-03-17T05:24:40.758Z,100.00
2019-03-17T05:27:09.250Z,100.00
2019-03-17T05:29:37.715Z,100.00
2019-03-17T05:32:06.201Z,100.00
2019-03-17T05:34:34.659Z,100.00
2019-03-17T05:37:06.519Z,100.00
2019-03-17T05:39:33.334Z,100.00
2019-03-17T05:42:01.819Z,100.00
2019-03-17T05:44:30.282Z,100.00
2019-03-17T05:46:58.773Z,100.00
2019-03-17T05:49:27.243Z,100.00
2019-03-17T05:51:55.733Z,100.00
2019-03-17T05:54:24.192Z,100.00
2019-03-17T05:56:52.690Z,100.00
2019-03-17T05:59:21.153Z,99.80
2019-03-17T06:01:49.642Z,99.16
2019-03-17T06:04:18.671Z,98.80
2019-03-17T06:06:47.160Z,98.38
2019-03-17T06:09:15.614Z,98.27
2019-03-17T06:11:44.100Z,97.86
2019-03-17T06:14:12.571Z,97.19
2019-03-17T06:16:41.056Z,96.10
2019-03-17T06:19:09.520Z,95.94
2019-03-17T06:21:38.005Z,95.17
2019-03-17T06:24:06.473Z,94.46
2019-03-17T06:26:34.956Z,94.96
2019-03-17T06:29:03.416Z,93.76
2019-03-17T06:31:31.906Z,92.69
2019-03-17T06:34:00.368Z,92.02
2019-03-17T06:36:28.866Z,91.98
2019-03-17T06:38:57.327Z,91.99
2019-03-17T06:41:25.812Z,91.21
2019-03-17T06:43:54.274Z,91.62
2019-03-17T06:46:22.754Z,91.11
2019-03-17T06:48:51.536Z,90.72
2019-03-17T06:51:20.025Z,90.51
2019-03-17T06:53:56.388Z,89.93
2019-03-17T06:56:18.698Z,89.29
2019-03-17T06:58:47.155Z,88.34
2019-03-17T07:01:15.633Z,87.65
2019-03-17T07:03:44.089Z,87.00
2019-03-17T07:06:12.573Z,87.60
2019-03-17T07:08:41.037Z,87.07
2019-03-17T07:11:11.046Z,85.53
2019-03-17T07:13:39.739Z,85.41
2019-03-17T07:16:08.197Z,85.16
2019-03-17T07:18:36.700Z,85.35
2019-03-17T07:21:05.158Z,84.14
2019-03-17T07:23:34.413Z,83.04
2019-03-17T07:26:03.044Z,82.35
2019-03-17T07:28:31.533Z,82.38
2019-03-17T07:31:00.002Z,82.27
2019-03-17T07:33:28.479Z,81.18
2019-03-17T07:35:56.947Z,80.04
2019-03-17T07:38:25.426Z,78.40
2019-03-17T07:40:53.896Z,78.92
2019-03-17T07:43:22.421Z,78.01
2019-03-17T07:45:50.886Z,77.71
2019-03-17T07:48:19.385Z,77.74
2019-03-17T07:50:47.849Z,77.54
2019-03-17T07:53:16.469Z,77.15
2019-03-17T07:55:46.057Z,76.90
2019-03-17T07:58:14.578Z,75.85
2019-03-17T08:00:43.444Z,75.52
2019-03-17T08:03:15.993Z,76.55
2019-03-17T08:05:44.484Z,77.77
2019-03-17T08:08:14.006Z,76.74
2019-03-17T08:10:42.848Z,75.55
2019-03-17T08:13:11.354Z,75.08
2019-03-17T08:15:39.825Z,75.67
2019-03-17T08:18:09.993Z,74.76
2019-03-17T08:20:38.690Z,74.92
2019-03-17T08:23:07.175Z,76.72
2019-03-17T08:25:35.702Z,75.48
2019-03-17T08:28:04.229Z,74.18
2019-03-17T08:30:32.925Z,73.88
2019-03-17T08:33:01.430Z,75.20
2019-03-17T08:35:29.905Z,72.58
2019-03-17T08:37:58.422Z,73.73
2019-03-17T08:40:26.931Z,72.86
2019-03-17T08:43:00.990Z,71.61
2019-03-17T08:45:29.548Z,69.31
2019-03-17T08:47:58.775Z,69.87
2019-03-17T08:50:27.358Z,70.96
2019-03-17T08:52:55.858Z,71.00
2019-03-17T08:55:24.337Z,69.46
2019-03-17T08:57:52.830Z,68.36
2019-03-17T09:00:21.930Z,69.80
2019-03-17T09:02:50.424Z,66.87
2019-03-17T09:05:18.894Z,66.77
2019-03-17T09:07:47.376Z,63.94
2019-03-17T09:10:16.287Z,63.79
2019-03-17T09:12:44.839Z,61.81
2019-03-17T09:15:13.372Z,61.11
2019-03-17T09:17:41.872Z,60.64
2019-03-17T09:20:12.377Z,60.08
2019-03-17T09:22:40.928Z,57.42
2019-03-17T09:25:10.833Z,59.16
2019-03-17T09:27:39.405Z,57.75
2019-03-17T09:30:13.270Z,55.28
2019-03-17T09:32:41.783Z,59.23
2019-03-17T09:35:10.537Z,56.10
2019-03-17T09:37:39.011Z,57.02
2019-03-17T09:40:12.995Z,55.64
2019-03-17T09:42:41.485Z,56.55
2019-03-17T09:45:11.795Z,56.83
2019-03-17T09:47:41.287Z,57.28
2019-03-17T09:50:12.538Z,57.82
2019-03-17T09:52:41.026Z,57.40
2019-03-17T09:55:10.536Z,56.64
2019-03-17T09:57:39.028Z,56.65
2019-03-17T10:00:14.870Z,58.11
2019-03-17T10:02:43.436Z,59.55
2019-03-17T10:05:12.443Z,60.09
2019-03-17T10:07:40.934Z,60.90
2019-03-17T10:10:20.442Z,62.33
2019-03-17T10:12:48.926Z,61.97
2019-03-17T10:15:19.502Z,57.79
2019-03-17T10:17:47.993Z,57.23
2019-03-17T10:20:20.619Z,57.02
2019-03-17T10:22:49.107Z,56.60
2019-03-17T10:25:17.649Z,55.66
2019-03-17T10:27:46.214Z,56.84
2019-03-17T10:30:18.833Z,57.82
2019-03-17T10:32:47.300Z,56.06
2019-03-17T10:35:15.843Z,53.71
2019-03-17T10:37:44.302Z,53.83
2019-03-17T10:40:17.636Z,53.91
2019-03-17T10:42:46.104Z,55.28
2019-03-17T10:45:15.343Z,54.62
2019-03-17T10:47:43.807Z,52.74
2019-03-17T10:50:17.508Z,55.53
2019-03-17T10:52:45.978Z,53.31
2019-03-17T10:55:14.638Z,54.59
2019-03-17T10:57:43.098Z,53.31
2019-03-17T11:00:14.748Z,52.36
2019-03-17T11:02:43.206Z,55.24
2019-03-17T11:05:11.875Z,54.57
2019-03-17T11:07:40.345Z,53.26
2019-03-17T11:10:12.799Z,54.41
2019-03-17T11:12:41.712Z,54.80
2019-03-17T11:15:20.655Z,53.25
2019-03-17T11:17:49.189Z,52.80
2019-03-17T11:20:17.678Z,52.92
2019-03-17T11:22:46.312Z,50.88
2019-03-17T11:25:15.846Z,51.71
2019-03-17T11:27:44.383Z,53.71
2019-03-17T11:30:14.412Z,51.74
2019-03-17T11:32:42.875Z,51.16
2019-03-17T11:35:11.502Z,50.16
2019-03-17T11:37:40.044Z,50.68
2019-03-17T11:40:11.591Z,49.53
2019-03-17T11:42:40.074Z,48.23
2019-03-17T11:45:11.553Z,48.73
2019-03-17T11:47:40.098Z,47.56
2019-03-17T11:50:11.726Z,46.85
2019-03-17T11:52:40.260Z,48.25
2019-03-17T11:55:10.099Z,47.41
2019-03-17T11:57:38.643Z,48.46
2019-03-17T12:00:21.044Z,47.18
2019-03-17T12:02:49.516Z,46.45
2019-03-17T12:05:20.828Z,48.91
2019-03-17T12:07:49.300Z,47.83
2019-03-17T12:10:19.886Z,43.75
2019-03-17T12:12:48.428Z,45.55
2019-03-17T12:15:24.557Z,41.74
2019-03-17T12:17:53.030Z,45.54
2019-03-17T12:20:21.587Z,42.87
2019-03-17T12:22:50.060Z,43.43
2019-03-17T12:25:19.283Z,40.37
2019-03-17T12:27:47.823Z,42.33
2019-03-17T12:30:24.382Z,39.23
2019-03-17T12:32:53.883Z,40.12
2019-03-17T12:35:23.009Z,36.73
2019-03-17T12:37:51.615Z,39.40
2019-03-17T12:40:20.366Z,39.14
2019-03-17T12:42:48.845Z,36.12
2019-03-17T12:45:17.559Z,38.27
2019-03-17T12:47:46.102Z,38.35
2019-03-17T12:50:21.556Z,37.37
2019-03-17T12:52:50.028Z,37.71
2019-03-17T12:55:18.521Z,39.17
2019-03-17T12:57:47.062Z,37.03
2019-03-17T13:00:17.745Z,38.57
2019-03-17T13:02:46.202Z,37.37
2019-03-17T13:05:16.189Z,34.42
2019-03-17T13:07:44.725Z,33.93
2019-03-17T13:10:21.155Z,33.50
2019-03-17T13:12:49.699Z,36.36
2019-03-17T13:15:18.185Z,35.30
2019-03-17T13:17:46.818Z,36.27
2019-03-17T13:20:16.547Z,33.47
2019-03-17T13:22:45.018Z,31.73
2019-03-17T13:25:13.843Z,32.69
2019-03-17T13:27:42.323Z,31.23
2019-03-17T13:30:13.053Z,31.65
2019-03-17T13:32:41.521Z,29.64
2019-03-17T13:35:10.655Z,29.33
2019-03-17T13:37:39.123Z,31.32
2019-03-17T13:40:27.645Z,30.68
2019-03-17T13:42:45.338Z,29.30
2019-03-17T13:45:14.285Z,31.53
2019-03-17T13:47:42.879Z,31.73
2019-03-17T13:50:21.592Z,34.47
2019-03-17T13:52:50.069Z,30.63
2019-03-17T13:55:18.646Z,29.14
2019-03-17T13:58:01.317Z,29.39
2019-03-17T14:00:29.817Z,31.36
2019-03-17T14:02:58.272Z,28.56
2019-03-17T14:05:26.755Z,29.08
2019-03-17T14:07:55.293Z,30.33
2019-03-17T14:10:23.778Z,29.47
2019-03-17T14:12:52.249Z,30.57
2019-03-17T14:15:20.753Z,32.43
2019-03-17T14:17:49.208Z,30.48
2019-03-17T14:20:21.581Z,29.05
2019-03-17T14:22:50.134Z,28.94
2019-03-17T14:25:29.076Z,28.51
2019-03-17T14:27:57.544Z,31.41
2019-03-17T14:30:26.029Z,32.78
2019-03-17T14:32:54.503Z,32.36
2019-03-17T14:35:22.987Z,33.35
2019-03-17T14:37:51.554Z,33.42
2019-03-17T14:40:20.047Z,35.11
2019-03-17T14:42:49.958Z,34.94
2019-03-17T14:45:20.659Z,33.77
2019-03-17T14:47:49.188Z,36.19
2019-03-17T14:50:19.427Z,37.45
2019-03-17T14:52:47.895Z,38.16
2019-03-17T14:55:16.537Z,37.28
2019-03-17T14:57:45.009Z,37.93
2019-03-17T15:00:16.016Z,37.66
2019-03-17T15:02:44.836Z,37.31
2019-03-17T15:05:13.568Z,37.87
2019-03-17T15:07:42.039Z,40.16
2019-03-17T15:10:19.439Z,40.98
2019-03-17T15:12:48.176Z,41.67
2019-03-17T15:15:20.578Z,43.34
2019-03-17T15:17:49.053Z,43.36
2019-03-17T15:20:27.399Z,46.22
2019-03-17T15:22:56.013Z,45.60
2019-03-17T15:25:24.519Z,46.77
2019-03-17T15:27:52.980Z,46.73
2019-03-17T15:30:26.337Z,45.69
2019-03-17T15:32:54.799Z,43.98
2019-03-17T15:35:23.288Z,44.33
2019-03-17T15:37:51.759Z,44.13
2019-03-17T15:40:23.404Z,45.34
2019-03-17T15:42:51.879Z,44.16
2019-03-17T15:45:22.496Z,47.82
2019-03-17T15:47:51.058Z,47.13
2019-03-17T15:50:24.074Z,47.82
2019-03-17T15:52:52.625Z,47.89
2019-03-17T15:55:21.294Z,46.65
2019-03-17T15:57:49.854Z,48.28
2019-03-17T16:00:25.544Z,48.81
2019-03-17T16:02:52.168Z,46.01
2019-03-17T16:05:21.026Z,46.62
2019-03-17T16:07:49.532Z,46.70
2019-03-17T16:10:31.131Z,45.35
2019-03-17T16:12:59.632Z,45.77
2019-03-17T16:15:28.072Z,55.25
2019-03-17T16:17:56.561Z,61.97
2019-03-17T16:20:28.252Z,64.59
2019-03-17T16:22:56.795Z,67.34
2019-03-17T16:25:30.502Z,71.01
2019-03-17T16:27:58.994Z,72.35
2019-03-17T16:30:29.004Z,74.29
2019-03-17T16:32:57.492Z,74.62
2019-03-17T16:35:25.961Z,76.75
2019-03-17T16:37:54.454Z,78.68
2019-03-17T16:40:34.028Z,80.98
2019-03-17T16:43:02.510Z,82.01
2019-03-17T16:45:31.005Z,83.43
2019-03-17T16:47:59.465Z,82.65
2019-03-17T16:50:27.923Z,84.03
2019-03-17T16:52:56.408Z,84.69
2019-03-17T16:55:24.904Z,85.89
2019-03-17T16:57:53.390Z,87.44
2019-03-17T17:00:22.893Z,87.79
2019-03-17T17:02:51.658Z,88.66
2019-03-17T17:05:21.162Z,89.12
2019-03-17T17:07:50.655Z,87.05
2019-03-17T17:10:31.189Z,86.97
2019-03-17T17:12:59.618Z,87.81
2019-03-17T17:15:30.291Z,88.23
2019-03-17T17:17:59.130Z,86.70
2019-03-17T17:20:33.312Z,87.84
2019-03-17T17:23:01.802Z,87.25
2019-03-17T17:25:30.261Z,87.45
2019-03-17T17:27:58.754Z,88.04
2019-03-17T17:30:27.312Z,88.01
2019-03-17T17:32:55.853Z,89.06
2019-03-17T17:35:24.309Z,88.54
2019-03-17T17:37:52.809Z,87.90
2019-03-17T17:40:22.529Z,87.94
2019-03-17T17:42:51.001Z,88.52
2019-03-17T17:45:26.518Z,89.71
2019-03-17T17:47:54.985Z,90.34
2019-03-17T17:50:30.573Z,89.68
2019-03-17T17:52:59.065Z,90.36
2019-03-17T17:55:27.525Z,91.86
2019-03-17T17:57:56.389Z,91.71
2019-03-17T18:00:32.173Z,91.85
2019-03-17T18:03:00.674Z,91.93
2019-03-17T18:05:29.141Z,91.49
2019-03-17T18:07:57.633Z,91.69
2019-03-17T18:10:26.096Z,91.54
2019-03-17T18:12:54.579Z,90.62
2019-03-17T18:15:24.283Z,90.65
2019-03-17T18:17:52.766Z,90.87
2019-03-17T18:20:21.228Z,89.90
2019-03-17T18:22:49.705Z,88.57
2019-03-17T18:25:24.238Z,88.80
2019-03-17T18:27:52.743Z,89.79
2019-03-17T18:30:22.038Z,91.08
2019-03-17T18:32:50.528Z,89.40
2019-03-17T18:35:19.017Z,88.16
2019-03-17T18:37:47.519Z,89.00
2019-03-17T18:40:20.798Z,90.00
2019-03-17T18:42:49.445Z,89.13
2019-03-17T18:45:28.489Z,90.40
2019-03-17T18:47:57.791Z,88.90
2019-03-17T18:50:26.719Z,89.42
2019-03-17T18:52:55.297Z,89.73
2019-03-17T18:55:23.831Z,88.76
2019-03-17T18:57:52.324Z,88.32
2019-03-17T19:00:24.804Z,87.05
2019-03-17T19:02:53.373Z,86.72
2019-03-17T19:05:21.827Z,84.89
2019-03-17T19:07:50.322Z,84.73
2019-03-17T19:10:19.841Z,84.69
2019-03-17T19:12:48.393Z,84.84
2019-03-17T19:15:21.699Z,88.15
2019-03-17T19:17:50.253Z,86.47
2019-03-17T19:20:22.636Z,86.27
2019-03-17T19:22:51.126Z,86.23
2019-03-17T19:25:23.985Z,86.11
2019-03-17T19:27:52.481Z,89.00
2019-03-17T19:30:23.013Z,87.51
2019-03-17T19:32:51.524Z,86.85
2019-03-17T19:35:20.128Z,86.95
2019-03-17T19:37:48.616Z,86.62
2019-03-17T19:40:18.509Z,85.86
2019-03-17T19:42:57.880Z,86.90
2019-03-17T19:45:17.328Z,86.92
2019-03-17T19:47:45.809Z,87.19
2019-03-17T19:50:18.699Z,87.75
2019-03-17T19:52:47.201Z,87.47
2019-03-17T19:55:15.653Z,86.37
2019-03-17T19:57:45.809Z,85.70
2019-03-17T20:00:23.539Z,87.20
2019-03-17T20:02:52.020Z,87.72
2019-03-17T20:05:20.479Z,88.20
2019-03-17T20:07:48.968Z,88.23
2019-03-17T20:10:31.643Z,86.77
2019-03-17T20:13:11.022Z,86.74
2019-03-17T20:15:30.260Z,87.42
2019-03-17T20:17:58.746Z,86.75
2019-03-17T20:20:27.202Z,86.93
2019-03-17T20:22:55.815Z,87.09
2019-03-17T20:25:24.279Z,86.34
2019-03-17T20:27:52.764Z,87.29
2019-03-17T20:30:21.222Z,88.81
2019-03-17T20:32:49.697Z,87.69
2019-03-17T20:35:18.167Z,87.68
2019-03-17T20:37:46.670Z,86.64
2019-03-17T20:40:17.504Z,87.15
2019-03-17T20:42:45.980Z,87.06
2019-03-17T20:45:15.688Z,88.29
2019-03-17T20:47:44.226Z,89.77
2019-03-17T20:50:17.795Z,90.93
2019-03-17T20:52:46.252Z,89.98
2019-03-17T20:55:14.806Z,88.99
2019-03-17T20:57:43.282Z,89.79
2019-03-17T21:00:18.615Z,89.95
2019-03-17T21:02:47.263Z,90.96
2019-03-17T21:05:16.002Z,90.71
2019-03-17T21:07:44.456Z,90.36
2019-03-17T21:10:17.909Z,89.50
2019-03-17T21:12:46.368Z,88.83
2019-03-17T21:15:20.274Z,91.17
2019-03-17T21:17:48.744Z,90.98
2019-03-17T21:20:22.145Z,88.94
2019-03-17T21:22:50.603Z,86.06
2019-03-17T21:25:19.730Z,85.24
2019-03-17T21:27:48.579Z,83.88
2019-03-17T21:30:21.819Z,81.38
2019-03-17T21:32:50.281Z,82.87
2019-03-17T21:35:18.768Z,81.09
2019-03-17T21:37:47.239Z,82.71
2019-03-17T21:40:15.729Z,82.47
2019-03-17T21:42:44.189Z,82.02
2019-03-17T21:45:13.708Z,82.82
2019-03-17T21:47:42.179Z,82.18
2019-03-17T21:50:15.485Z,82.03
2019-03-17T21:52:44.020Z,82.12
2019-03-17T21:55:13.647Z,82.41
2019-03-17T21:57:42.122Z,82.40
2019-03-17T22:00:18.527Z,82.67
2019-03-17T22:02:46.986Z,83.06
2019-03-17T22:05:15.748Z,83.37
2019-03-17T22:07:50.080Z,83.82
2019-03-17T22:10:17.211Z,83.75
2019-03-17T22:12:45.742Z,83.94
2019-03-17T22:15:18.012Z,83.16
2019-03-17T22:17:46.749Z,84.70
2019-03-17T22:20:18.341Z,84.29
2019-03-17T22:22:46.966Z,84.45
2019-03-17T22:25:16.393Z,84.46
2019-03-17T22:27:44.850Z,85.07
2019-03-17T22:30:18.169Z,84.25
2019-03-17T22:32:46.629Z,84.21
2019-03-17T22:35:15.183Z,85.11
2019-03-17T22:37:43.789Z,86.12
2019-03-17T22:40:13.512Z,85.44
2019-03-17T22:42:42.214Z,85.90
2019-03-17T22:45:12.344Z,84.95
2019-03-17T22:47:40.794Z,84.76
2019-03-17T22:50:11.685Z,84.16
2019-03-17T22:52:40.156Z,85.06
2019-03-17T22:55:10.182Z,85.24
2019-03-17T22:57:38.638Z,85.17
2019-03-17T23:00:16.306Z,85.33
2019-03-17T23:02:44.766Z,83.17
2019-03-17T23:05:13.592Z,83.27
2019-03-17T23:07:42.049Z,85.04
2019-03-17T23:10:11.873Z,84.43
2019-03-17T23:12:40.333Z,84.57
2019-03-17T23:15:10.862Z,83.84
2019-03-17T23:17:39.327Z,82.97
2019-03-17T23:20:11.203Z,82.39
2019-03-17T23:22:39.666Z,82.35
2019-03-17T23:25:09.990Z,81.98
2019-03-17T23:27:38.452Z,82.99
2019-03-17T23:30:10.321Z,83.19
2019-03-17T23:32:38.787Z,83.43
2019-03-17T23:35:08.317Z,84.24
2019-03-17T23:37:36.773Z,83.90
2019-03-17T23:40:09.645Z,83.53
2019-03-17T23:42:38.415Z,82.62
2019-03-17T23:45:11.860Z,82.60
2019-03-17T23:47:40.324Z,82.51
2019-03-17T23:50:10.347Z,82.39
2019-03-17T23:52:38.809Z,82.43
2019-03-17T23:55:10.078Z,82.71
2019-03-17T23:57:38.539Z,82.04
